Kezdőlap
METAR-TAF:

METAR-TAF

Repülőterek :

Granada, Spanyolország

földrajzi szélesség: 37-11N, földrajzi hosszúság: 003-47W, magasság: 567 m

Jelenlegi meteorológiai megfigyelések

A jelentés 30 perccel ezelõtt készült, 05:30 UTC
Déli szél 3 kt
Hőmérséklet 10°C
Páratartalom 66%
Légköri nyomás 1017 hPa
Látótávolság 10 km, vagy több
felhőtlen 1500 m magasságban, és nincs gomolyfelhõ

METAR: LEGR 230530Z 18003KT CAVOK 10/04 Q1017

Idő: 08:00 (06:00 UTC)

Előrejelzés

A jelentés 1 órával és 0 perccel ezelõtt készült, 05:00 UTC
Az előrejelzés 23-én 06 óra UTC és 24-én 06 óra UTC között érvényes
Különbözõ irányokból fújó szél 2 kt
Látótávolság 10 km, vagy több
felhőtlen 1500 m magasságban, és nincs gomolyfelhõ
Valószínűség 40% :
23-én 18 óra UTC és 23-én 21 óra UTC között ideiglenes
Déli szél 12 kt

TAF: LEGR 230500Z 2306/2406 VRB02KT CAVOK TX29/2315Z TN11/2405Z PROB40 TEMPO 2318/2321 18012KT

Meteorológiai megfigyelések és előrejelzések több, mint 4000 repülőtéren (METAR és TAF jelentéseket).

A térképen piros és sárga pontok jelzik az elérhető meteorológiai állomásokat.

Mozgassa az egeret a pont fölött, hogy megjelenjen az állomás neve.

Azután kattintson az időjárási megfigyelések és előrejelzések megtekintéséhez.

A térkép megváltoztatása: kattintson a fekete keresztel jelölt zöld gombra ráközelítéshez, a vonallal jelölt zöld gombra távolításhoz, vagy a zöld nyilakra a szomszédos térképek eléréséhez.


METAR-TAF: